createdAt,value
2019-01-11T00:02:17.822Z,17.5
2019-01-11T00:07:45.055Z,16.5
2019-01-11T00:13:11.704Z,16.700001
2019-01-11T00:18:35.373Z,14.3
2019-01-11T00:23:58.693Z,14.3
2019-01-11T00:29:22.019Z,13.6
2019-01-11T00:34:48.568Z,12.7
2019-01-11T00:40:13.041Z,13
2019-01-11T00:45:36.672Z,12.3
2019-01-11T00:51:00.538Z,12.6
2019-01-11T00:56:23.283Z,12.8
2019-01-11T01:01:49.536Z,13.4
2019-01-11T01:07:13.413Z,13.9
2019-01-11T01:12:37.861Z,13.8
2019-01-11T01:18:04.189Z,13.5
2019-01-11T01:23:28.320Z,14
2019-01-11T01:28:52.555Z,15
2019-01-11T01:34:16.366Z,14.5
2019-01-11T01:39:39.976Z,14.9
2019-01-11T01:45:02.317Z,15.9
2019-01-11T01:50:26.558Z,15.3
2019-01-11T01:55:51.034Z,16
2019-01-11T02:01:16.719Z,17.6
2019-01-11T02:06:40.414Z,16.6
2019-01-11T02:12:06.694Z,16.6
2019-01-11T02:17:30.274Z,16.6
2019-01-11T02:22:53.576Z,16.6
2019-01-11T02:28:17.453Z,16.200001
2019-01-11T02:33:40.774Z,15.9
2019-01-11T02:39:03.608Z,15.9
2019-01-11T02:44:27.670Z,16
2019-01-11T02:49:50.559Z,15.5
2019-01-11T02:55:15.165Z,16.4
2019-01-11T03:00:37.852Z,16
2019-01-11T03:06:03.026Z,15.5
2019-01-11T03:11:26.294Z,15.2
2019-01-11T03:16:50.545Z,15.1
2019-01-11T03:22:14.806Z,15.6
2019-01-11T03:27:42.031Z,15.7
2019-01-11T03:33:05.825Z,16.1
2019-01-11T03:38:29.161Z,17
2019-01-11T03:43:51.845Z,17.5
2019-01-11T03:49:16.038Z,17.700001
2019-01-11T03:54:40.166Z,17.6
2019-01-11T04:00:04.158Z,17.700001
2019-01-11T04:05:28.410Z,17.200001
2019-01-11T04:10:51.998Z,19
2019-01-11T04:16:16.139Z,18.700001
2019-01-11T04:21:39.906Z,21.5
2019-01-11T04:27:06.582Z,21.9
2019-01-11T04:32:32.279Z,23.4
2019-01-11T04:37:55.922Z,22.1
2019-01-11T04:43:24.038Z,25.299999
2019-01-11T04:48:47.505Z,23.299999
2019-01-11T04:54:10.925Z,25.5
2019-01-11T04:59:35.565Z,26.1
2019-01-11T05:04:58.415Z,26.6
2019-01-11T05:10:21.756Z,27.299999
2019-01-11T05:15:46.132Z,28.5
2019-01-11T05:21:09.654Z,28.1
2019-01-11T05:26:33.285Z,29.700001
2019-01-11T05:31:55.998Z,29.700001
2019-01-11T05:37:19.206Z,30.299999
2019-01-11T05:42:42.317Z,31.5
2019-01-11T05:48:05.429Z,35.799999
2019-01-11T05:53:28.567Z,32.400002
2019-01-11T05:58:51.925Z,35.200001
2019-01-11T06:04:15.409Z,35.5
2019-01-11T06:09:38.503Z,36
2019-01-11T06:15:00.607Z,35.799999
2019-01-11T06:20:23.384Z,37.299999
2019-01-11T06:25:47.523Z,36.700001
2019-01-11T06:31:12.522Z,41.299999
2019-01-11T06:36:35.357Z,40.400002
2019-01-11T06:41:58.180Z,38.900002
2019-01-11T06:47:20.879Z,44.799999
2019-01-11T06:52:43.653Z,43.5
2019-01-11T06:58:06.756Z,45.700001
2019-01-11T07:03:29.483Z,44.700001
2019-01-11T07:08:52.240Z,45.099998
2019-01-11T07:14:15.009Z,49.299999
2019-01-11T07:19:37.759Z,49.400002
2019-01-11T07:25:00.612Z,48.200001
2019-01-11T07:30:23.368Z,46.5
2019-01-11T07:35:47.004Z,49.200001
2019-01-11T07:41:10.485Z,63.599998
2019-01-11T07:46:33.810Z,53.799999
2019-01-11T07:51:56.827Z,65.199997
2019-01-11T07:57:19.594Z,53.700001
2019-01-11T08:02:42.808Z,58.299999
2019-01-11T08:08:05.451Z,52
2019-01-11T08:13:29.442Z,57.200001
2019-01-11T08:18:53.535Z,61
2019-01-11T08:24:17.300Z,69.400002
2019-01-11T08:29:40.625Z,68
2019-01-11T08:35:03.373Z,64.199997
2019-01-11T08:40:27.129Z,54.5
2019-01-11T08:45:49.878Z,62.5
2019-01-11T08:51:13.294Z,64.699997
2019-01-11T08:56:35.972Z,64.199997
2019-01-11T09:01:58.684Z,60.599998
2019-01-11T09:07:21.416Z,60.900002
2019-01-11T09:12:45.082Z,68.099998
2019-01-11T09:18:07.820Z,60.200001
2019-01-11T09:23:30.528Z,68
2019-01-11T09:28:53.891Z,63.900002
2019-01-11T09:34:16.647Z,53.900002
2019-01-11T09:39:40.400Z,66.400002
2019-01-11T09:45:03.171Z,64.5
2019-01-11T09:50:26.431Z,62.900002
2019-01-11T09:55:49.478Z,57.799999
2019-01-11T10:01:12.287Z,53.200001
2019-01-11T10:06:35.037Z,53.299999
2019-01-11T10:11:57.768Z,46.700001
2019-01-11T10:17:20.709Z,54.900002
2019-01-11T10:22:43.451Z,49.799999
2019-01-11T10:28:06.637Z,51.299999
2019-01-11T10:33:29.333Z,52.5
2019-01-11T10:38:52.821Z,52.099998
2019-01-11T10:44:15.710Z,48
2019-01-11T10:49:39.242Z,43.099998
2019-01-11T10:55:02.031Z,50.400002
2019-01-11T11:00:26.645Z,48.799999
2019-01-11T11:05:52.164Z,52.200001
2019-01-11T11:11:16.618Z,48.599998
2019-01-11T11:16:39.866Z,46.5
2019-01-11T11:22:03.367Z,47
2019-01-11T11:27:26.114Z,43.900002
2019-01-11T11:32:48.801Z,42.700001
2019-01-11T11:38:11.685Z,37
2019-01-11T11:43:35.263Z,41.5
2019-01-11T11:49:00.611Z,40.900002
2019-01-11T11:54:24.350Z,43.700001
2019-01-11T11:59:49.118Z,44.5
2019-01-11T12:05:12.699Z,37.099998
2019-01-11T12:10:36.361Z,33.200001
2019-01-11T12:16:00.453Z,25.799999
2019-01-11T12:21:24.045Z,21.299999
2019-01-11T12:26:47.478Z,20.1
2019-01-11T12:32:10.196Z,15.8
2019-01-11T12:37:40.466Z,13.3
2019-01-11T12:43:05.352Z,9.5
2019-01-11T12:48:31.668Z,10.4
2019-01-11T12:53:55.836Z,9.8
2019-01-11T12:59:18.726Z,8.5
2019-01-11T13:04:42.290Z,6.1
2019-01-11T13:10:06.595Z,5.5
2019-01-11T13:15:29.775Z,5.1
2019-01-11T13:20:53.409Z,5
2019-01-11T13:26:16.223Z,3.6
2019-01-11T13:31:38.933Z,3.9
2019-01-11T13:37:04.979Z,3.8
2019-01-11T13:42:27.745Z,4.8
2019-01-11T13:47:50.455Z,5.3
2019-01-11T13:53:13.766Z,4.4
2019-01-11T13:58:37.079Z,4.5
2019-01-11T14:03:59.832Z,5.1
2019-01-11T14:09:22.902Z,5.5
2019-01-11T14:14:45.725Z,5.4
2019-01-11T14:20:08.542Z,6.3
2019-01-11T14:25:40.235Z,4.2
2019-01-11T14:31:03.029Z,3.6
2019-01-11T14:36:26.847Z,3.6
2019-01-11T14:41:50.742Z,4.5
2019-01-11T14:47:23.254Z,5.3
2019-01-11T14:52:46.647Z,4.7
2019-01-11T14:58:10.371Z,4.2
2019-01-11T15:03:33.019Z,4.2
2019-01-11T15:08:57.574Z,4.2
2019-01-11T15:14:21.007Z,4.3
2019-01-11T15:19:43.787Z,5.1
2019-01-11T15:25:07.329Z,5
2019-01-11T15:30:30.261Z,5.8
2019-01-11T15:35:52.968Z,5.6
2019-01-11T15:41:17.482Z,5
2019-01-11T15:46:40.171Z,3.7
2019-01-11T15:52:03.554Z,3.6
2019-01-11T15:57:28.643Z,3.7
2019-01-11T16:02:52.062Z,3.8
2019-01-11T16:08:15.517Z,4.4
2019-01-11T16:13:38.243Z,4.9
2019-01-11T16:19:01.050Z,4.5
2019-01-11T16:24:24.438Z,3.7
2019-01-11T16:29:48.009Z,3.9
2019-01-11T16:35:11.426Z,4.2
2019-01-11T16:40:35.733Z,4.3
2019-01-11T16:45:58.496Z,3.2
2019-01-11T16:51:24.012Z,3.8
2019-01-11T16:56:58.602Z,3.8
2019-01-11T17:02:24.562Z,3.6
2019-01-11T17:07:48.961Z,3.7
2019-01-11T17:13:14.049Z,4.3
2019-01-11T17:18:38.050Z,4.1
2019-01-11T17:24:02.164Z,5.1
2019-01-11T17:29:25.713Z,5.2
2019-01-11T17:34:58.521Z,4.7
2019-01-11T17:40:22.401Z,4.8
2019-01-11T17:45:45.946Z,4.3
2019-01-11T17:51:08.635Z,4.4
2019-01-11T17:56:31.715Z,3.9
2019-01-11T18:01:54.572Z,4.3
2019-01-11T18:07:17.548Z,3.9
2019-01-11T18:12:40.248Z,4
2019-01-11T18:18:04.592Z,4.6
2019-01-11T18:23:27.562Z,4.1
2019-01-11T18:28:51.465Z,3.9
2019-01-11T18:34:14.142Z,3.8
2019-01-11T18:39:37.165Z,4.2
2019-01-11T18:45:00.245Z,3.6
2019-01-11T18:50:23.820Z,3.4
2019-01-11T18:55:46.726Z,3.5
2019-01-11T19:01:11.217Z,3.8
2019-01-11T19:06:34.036Z,4.3
2019-01-11T19:11:58.049Z,4.4
2019-01-11T19:17:20.581Z,4
2019-01-11T19:22:46.886Z,3.6
2019-01-11T19:28:10.068Z,4.1
2019-01-11T19:33:32.839Z,5.4
2019-01-11T19:39:05.003Z,4.1
2019-01-11T19:44:39.301Z,4.5
2019-01-11T19:50:11.295Z,4.3
2019-01-11T19:55:34.065Z,4.5
2019-01-11T20:01:07.315Z,5.1
2019-01-11T20:06:39.745Z,4.4
2019-01-11T20:12:13.995Z,5.2
2019-01-11T20:17:36.810Z,4.6
2019-01-11T20:23:10.294Z,4.7
2019-01-11T20:28:44.412Z,4
2019-01-11T20:34:08.471Z,4.8
2019-01-11T20:39:43.570Z,5.1
2019-01-11T20:45:16.870Z,5.4
2019-01-11T20:50:40.470Z,6.4
2019-01-11T20:56:05.502Z,5.4
2019-01-11T21:01:28.287Z,5.6
2019-01-11T21:07:04.012Z,5.7
2019-01-11T21:12:37.022Z,5.6
2019-01-11T21:17:59.840Z,5
2019-01-11T21:23:33.011Z,5.3
2019-01-11T21:29:07.196Z,5.5
2019-01-11T21:34:32.081Z,5.6
2019-01-11T21:40:07.844Z,6.2
2019-01-11T21:45:40.636Z,6.7
2019-01-11T21:51:03.502Z,5.9
2019-01-11T21:56:37.430Z,6.3
2019-01-11T22:02:00.882Z,6.2
2019-01-11T22:07:24.470Z,5.7
2019-01-11T22:12:47.781Z,5.5
2019-01-11T22:18:50.984Z,5.1
2019-01-11T22:24:23.448Z,4.9
2019-01-11T22:29:47.750Z,4.7
2019-01-11T22:35:11.374Z,4.5
2019-01-11T22:40:34.965Z,4.7
2019-01-11T22:45:57.672Z,8.4
2019-01-11T22:51:29.347Z,5.8
2019-01-11T22:56:52.010Z,3.7
2019-01-11T23:02:16.164Z,4.5
2019-01-11T23:07:40.928Z,4.1
2019-01-11T23:13:13.817Z,4.4
2019-01-11T23:18:38.074Z,4.9
2019-01-11T23:24:01.888Z,4.5
2019-01-11T23:29:24.807Z,3.7
2019-01-11T23:34:47.522Z,4.3
2019-01-11T23:40:13.248Z,3.8
2019-01-11T23:45:36.158Z,3.7
2019-01-11T23:50:58.843Z,3.4
2019-01-11T23:56:21.647Z,3.9
